sensor_id;sensor_type;location;lat;lon;timestamp;pressure;altitude;pressure_sealevel;temperature;humidity
63916;BME280;50094;51.356;-0.196;2022-10-22T00:02:27;99554.93;;;26.39;37.25
63916;BME280;50094;51.356;-0.196;2022-10-22T00:04:54;99554.91;;;26.67;37.26
63916;BME280;50094;51.356;-0.196;2022-10-22T00:07:22;99558.59;;;26.38;37.29
63916;BME280;50094;51.356;-0.196;2022-10-22T00:09:50;99561.62;;;26.38;37.31
63916;BME280;50094;51.356;-0.196;2022-10-22T00:12:18;99562.50;;;26.39;37.27
63916;BME280;50094;51.356;-0.196;2022-10-22T00:14:46;99567.97;;;26.38;37.28
63916;BME280;50094;51.356;-0.196;2022-10-22T00:17:14;99573.94;;;26.34;37.32
63916;BME280;50094;51.356;-0.196;2022-10-22T00:19:42;99577.48;;;26.62;37.33
63916;BME280;50094;51.356;-0.196;2022-10-22T00:22:10;99574.95;;;26.39;37.29
63916;BME280;50094;51.356;-0.196;2022-10-22T00:24:38;99580.56;;;26.35;37.30
63916;BME280;50094;51.356;-0.196;2022-10-22T00:27:06;99586.58;;;26.35;37.29
63916;BME280;50094;51.356;-0.196;2022-10-22T00:29:34;99589.19;;;26.11;37.35
63916;BME280;50094;51.356;-0.196;2022-10-22T00:32:04;99590.64;;;26.41;37.30
63916;BME280;50094;51.356;-0.196;2022-10-22T00:34:32;99595.99;;;26.41;37.28
63916;BME280;50094;51.356;-0.196;2022-10-22T00:36:59;99604.29;;;26.40;37.23
63916;BME280;50094;51.356;-0.196;2022-10-22T00:39:28;99607.25;;;26.66;37.23
63916;BME280;50094;51.356;-0.196;2022-10-22T00:41:56;99606.82;;;26.45;37.19
63916;BME280;50094;51.356;-0.196;2022-10-22T00:45:28;99611.33;;;26.50;37.15
63916;BME280;50094;51.356;-0.196;2022-10-22T00:47:59;99618.20;;;26.52;37.07
63916;BME280;50094;51.356;-0.196;2022-10-22T00:50:30;99624.85;;;26.44;37.13
63916;BME280;50094;51.356;-0.196;2022-10-22T00:52:59;99625.70;;;26.91;37.16
63916;BME280;50094;51.356;-0.196;2022-10-22T00:55:28;99628.32;;;26.43;37.15
63916;BME280;50094;51.356;-0.196;2022-10-22T00:57:57;99629.50;;;26.69;37.16
63916;BME280;50094;51.356;-0.196;2022-10-22T01:00:25;99635.18;;;26.39;37.17
63916;BME280;50094;51.356;-0.196;2022-10-22T01:02:53;99636.28;;;26.36;37.19
63916;BME280;50094;51.356;-0.196;2022-10-22T01:05:20;99637.31;;;26.32;37.25
63916;BME280;50094;51.356;-0.196;2022-10-22T01:07:50;99642.33;;;26.42;37.14
63916;BME280;50094;51.356;-0.196;2022-10-22T01:10:30;99640.10;;;26.63;37.18
63916;BME280;50094;51.356;-0.196;2022-10-22T01:13:10;99645.90;;;26.31;37.25
63916;BME280;50094;51.356;-0.196;2022-10-22T01:15:47;99650.75;;;26.30;37.26
63916;BME280;50094;51.356;-0.196;2022-10-22T01:18:21;99653.07;;;26.29;37.26
63916;BME280;50094;51.356;-0.196;2022-10-22T01:21:00;99657.34;;;26.59;37.22
63916;BME280;50094;51.356;-0.196;2022-10-22T01:23:47;99659.73;;;26.65;37.14
63916;BME280;50094;51.356;-0.196;2022-10-22T01:26:23;99667.25;;;26.34;37.19
63916;BME280;50094;51.356;-0.196;2022-10-22T01:28:59;99673.55;;;26.32;37.18
63916;BME280;50094;51.356;-0.196;2022-10-22T01:31:30;99679.81;;;26.54;37.22
63916;BME280;50094;51.356;-0.196;2022-10-22T01:33:59;99682.32;;;26.30;37.21
63916;BME280;50094;51.356;-0.196;2022-10-22T01:36:29;99684.62;;;26.51;37.32
63916;BME280;50094;51.356;-0.196;2022-10-22T01:39:00;99686.00;;;26.31;37.25
63916;BME280;50094;51.356;-0.196;2022-10-22T01:41:28;99689.22;;;26.39;37.15
63916;BME280;50094;51.356;-0.196;2022-10-22T01:43:55;99694.34;;;26.36;37.16
63916;BME280;50094;51.356;-0.196;2022-10-22T01:46:27;99695.58;;;26.37;37.12
63916;BME280;50094;51.356;-0.196;2022-10-22T01:49:08;99698.02;;;26.35;37.12
63916;BME280;50094;51.356;-0.196;2022-10-22T01:51:50;99703.12;;;26.32;37.18
63916;BME280;50094;51.356;-0.196;2022-10-22T01:54:26;99708.65;;;26.34;37.18
63916;BME280;50094;51.356;-0.196;2022-10-22T01:57:06;99709.55;;;26.32;37.20
63916;BME280;50094;51.356;-0.196;2022-10-22T01:59:43;99714.31;;;26.34;37.16
63916;BME280;50094;51.356;-0.196;2022-10-22T02:02:25;99717.07;;;26.38;37.13
63916;BME280;50094;51.356;-0.196;2022-10-22T02:04:59;99720.36;;;26.32;37.15
63916;BME280;50094;51.356;-0.196;2022-10-22T02:07:37;99721.68;;;26.54;37.22
63916;BME280;50094;51.356;-0.196;2022-10-22T02:10:08;99723.88;;;26.05;37.27
63916;BME280;50094;51.356;-0.196;2022-10-22T02:12:37;99726.37;;;26.55;37.23
63916;BME280;50094;51.356;-0.196;2022-10-22T02:15:07;99726.24;;;26.34;37.16
63916;BME280;50094;51.356;-0.196;2022-10-22T02:17:36;99728.46;;;26.34;37.22
63916;BME280;50094;51.356;-0.196;2022-10-22T02:20:07;99733.07;;;26.29;37.22
63916;BME280;50094;51.356;-0.196;2022-10-22T02:22:37;99737.08;;;26.66;37.23
63916;BME280;50094;51.356;-0.196;2022-10-22T02:25:05;99740.62;;;26.37;37.19
63916;BME280;50094;51.356;-0.196;2022-10-22T02:27:36;99742.59;;;26.37;37.21
63916;BME280;50094;51.356;-0.196;2022-10-22T02:30:10;99745.33;;;26.41;37.13
63916;BME280;50094;51.356;-0.196;2022-10-22T02:32:42;99749.36;;;26.35;37.16
63916;BME280;50094;51.356;-0.196;2022-10-22T02:35:14;99749.15;;;26.11;37.16
63916;BME280;50094;51.356;-0.196;2022-10-22T02:37:43;99755.91;;;26.31;37.19
63916;BME280;50094;51.356;-0.196;2022-10-22T02:40:11;99757.95;;;26.28;37.19
63916;BME280;50094;51.356;-0.196;2022-10-22T02:42:39;99757.88;;;26.24;37.28
63916;BME280;50094;51.356;-0.196;2022-10-22T02:45:09;99762.14;;;26.50;37.32
63916;BME280;50094;51.356;-0.196;2022-10-22T02:47:36;99769.39;;;26.48;37.29
63916;BME280;50094;51.356;-0.196;2022-10-22T02:50:05;99773.25;;;26.17;37.37
63916;BME280;50094;51.356;-0.196;2022-10-22T02:52:32;99778.24;;;26.53;37.23
63916;BME280;50094;51.356;-0.196;2022-10-22T02:55:01;99789.12;;;26.22;37.29
63916;BME280;50094;51.356;-0.196;2022-10-22T02:57:28;99789.88;;;26.56;37.31
63916;BME280;50094;51.356;-0.196;2022-10-22T02:59:54;99797.79;;;26.26;37.42
63916;BME280;50094;51.356;-0.196;2022-10-22T03:02:22;99800.66;;;26.22;37.44
63916;BME280;50094;51.356;-0.196;2022-10-22T03:04:50;99802.00;;;26.49;37.49
63916;BME280;50094;51.356;-0.196;2022-10-22T03:07:17;99801.26;;;26.49;37.54
63916;BME280;50094;51.356;-0.196;2022-10-22T03:09:45;99803.79;;;26.19;37.59
63916;BME280;50094;51.356;-0.196;2022-10-22T03:12:13;99808.87;;;26.17;37.55
63916;BME280;50094;51.356;-0.196;2022-10-22T03:14:40;99810.07;;;26.38;37.57
63916;BME280;50094;51.356;-0.196;2022-10-22T03:17:09;99818.22;;;26.61;37.63
63916;BME280;50094;51.356;-0.196;2022-10-22T03:19:36;99818.48;;;26.12;37.61
63916;BME280;50094;51.356;-0.196;2022-10-22T03:22:06;99820.94;;;26.39;37.64
63916;BME280;50094;51.356;-0.196;2022-10-22T03:24:37;99826.69;;;26.46;37.63
63916;BME280;50094;51.356;-0.196;2022-10-22T03:27:05;99830.84;;;26.22;37.65
63916;BME280;50094;51.356;-0.196;2022-10-22T03:29:36;99831.32;;;26.23;37.57
63916;BME280;50094;51.356;-0.196;2022-10-22T03:32:04;99836.85;;;26.50;37.59
63916;BME280;50094;51.356;-0.196;2022-10-22T03:34:31;99845.49;;;26.71;37.58
63916;BME280;50094;51.356;-0.196;2022-10-22T03:37:00;99851.17;;;26.45;37.59
63916;BME280;50094;51.356;-0.196;2022-10-22T03:39:29;99849.62;;;26.70;37.57
63916;BME280;50094;51.356;-0.196;2022-10-22T03:41:58;99850.66;;;26.72;37.56
63916;BME280;50094;51.356;-0.196;2022-10-22T03:44:26;99856.61;;;26.46;37.58
63916;BME280;50094;51.356;-0.196;2022-10-22T03:46:53;99861.06;;;26.20;37.51
63916;BME280;50094;51.356;-0.196;2022-10-22T03:49:21;99863.93;;;26.16;37.51
63916;BME280;50094;51.356;-0.196;2022-10-22T03:51:48;99872.21;;;26.48;37.45
63916;BME280;50094;51.356;-0.196;2022-10-22T03:54:16;99873.31;;;26.45;37.47
63916;BME280;50094;51.356;-0.196;2022-10-22T03:56:44;99876.08;;;26.38;37.47
63916;BME280;50094;51.356;-0.196;2022-10-22T03:59:11;99877.05;;;26.36;37.45
63916;BME280;50094;51.356;-0.196;2022-10-22T04:01:39;99885.30;;;26.35;37.55
63916;BME280;50094;51.356;-0.196;2022-10-22T04:04:07;99889.83;;;26.08;37.54
63916;BME280;50094;51.356;-0.196;2022-10-22T04:06:34;99898.32;;;26.37;37.50
63916;BME280;50094;51.356;-0.196;2022-10-22T04:09:02;99901.24;;;26.32;37.46
63916;BME280;50094;51.356;-0.196;2022-10-22T04:11:30;99905.83;;;26.51;37.47
63916;BME280;50094;51.356;-0.196;2022-10-22T04:13:57;99909.47;;;26.20;37.53
63916;BME280;50094;51.356;-0.196;2022-10-22T04:16:25;99912.43;;;26.38;37.59
63916;BME280;50094;51.356;-0.196;2022-10-22T04:18:53;99915.03;;;26.20;37.50
63916;BME280;50094;51.356;-0.196;2022-10-22T04:21:21;99915.57;;;26.40;37.50
63916;BME280;50094;51.356;-0.196;2022-10-22T04:23:51;99923.01;;;26.18;37.50
63916;BME280;50094;51.356;-0.196;2022-10-22T04:26:19;99928.25;;;26.21;37.52
63916;BME280;50094;51.356;-0.196;2022-10-22T04:28:48;99934.83;;;26.37;37.52
63916;BME280;50094;51.356;-0.196;2022-10-22T04:31:17;99941.27;;;26.35;37.48
63916;BME280;50094;51.356;-0.196;2022-10-22T04:33:45;99945.65;;;26.37;37.45
63916;BME280;50094;51.356;-0.196;2022-10-22T04:36:15;99949.38;;;26.33;37.48
63916;BME280;50094;51.356;-0.196;2022-10-22T04:38:44;99951.92;;;26.32;37.42
63916;BME280;50094;51.356;-0.196;2022-10-22T04:41:14;99954.41;;;26.32;37.44
63916;BME280;50094;51.356;-0.196;2022-10-22T04:43:42;99954.26;;;26.32;37.40
63916;BME280;50094;51.356;-0.196;2022-10-22T04:46:13;99955.06;;;26.27;37.44
63916;BME280;50094;51.356;-0.196;2022-10-22T04:48:42;99956.81;;;26.29;37.40
63916;BME280;50094;51.356;-0.196;2022-10-22T04:51:12;99957.03;;;26.27;37.40
63916;BME280;50094;51.356;-0.196;2022-10-22T04:53:40;99958.92;;;26.32;37.35
63916;BME280;50094;51.356;-0.196;2022-10-22T04:56:10;99958.97;;;26.14;37.29
63916;BME280;50094;51.356;-0.196;2022-10-22T04:58:38;99964.06;;;26.17;37.24
63916;BME280;50094;51.356;-0.196;2022-10-22T05:01:10;99961.04;;;26.35;37.20
63916;BME280;50094;51.356;-0.196;2022-10-22T05:03:38;99963.37;;;26.18;37.16
63916;BME280;50094;51.356;-0.196;2022-10-22T05:06:06;99961.26;;;26.39;37.19
63916;BME280;50094;51.356;-0.196;2022-10-22T05:08:34;99969.59;;;26.35;37.17
63916;BME280;50094;51.356;-0.196;2022-10-22T05:11:09;99981.64;;;26.37;37.16
63916;BME280;50094;51.356;-0.196;2022-10-22T05:13:37;99980.03;;;26.15;37.11
63916;BME280;50094;51.356;-0.196;2022-10-22T05:16:05;99987.53;;;26.14;37.11
63916;BME280;50094;51.356;-0.196;2022-10-22T05:18:33;99987.46;;;26.21;37.00
63916;BME280;50094;51.356;-0.196;2022-10-22T05:21:01;99991.34;;;26.24;36.97
63916;BME280;50094;51.356;-0.196;2022-10-22T05:23:28;99992.44;;;26.43;36.98
63916;BME280;50094;51.356;-0.196;2022-10-22T05:25:56;99993.95;;;26.30;36.87
63916;BME280;50094;51.356;-0.196;2022-10-22T05:28:23;99997.17;;;26.30;36.78
63916;BME280;50094;51.356;-0.196;2022-10-22T05:30:53;100000.30;;;26.25;36.83
63916;BME280;50094;51.356;-0.196;2022-10-22T05:33:20;100007.21;;;25.97;36.75
63916;BME280;50094;51.356;-0.196;2022-10-22T05:35:47;100007.03;;;26.41;36.84
63916;BME280;50094;51.356;-0.196;2022-10-22T05:38:15;100010.47;;;26.59;36.80
63916;BME280;50094;51.356;-0.196;2022-10-22T05:40:43;100008.91;;;26.29;36.87
63916;BME280;50094;51.356;-0.196;2022-10-22T05:43:12;100009.93;;;26.13;36.82
63916;BME280;50094;51.356;-0.196;2022-10-22T05:45:40;100013.96;;;26.31;36.84
63916;BME280;50094;51.356;-0.196;2022-10-22T05:48:08;100014.20;;;26.07;36.85
63916;BME280;50094;51.356;-0.196;2022-10-22T05:50:35;100016.14;;;26.32;36.82
63916;BME280;50094;51.356;-0.196;2022-10-22T05:53:04;100020.71;;;26.34;36.76
63916;BME280;50094;51.356;-0.196;2022-10-22T05:55:35;100020.77;;;26.30;36.76
63916;BME280;50094;51.356;-0.196;2022-10-22T05:58:02;100025.06;;;26.29;36.73
63916;BME280;50094;51.356;-0.196;2022-10-22T06:00:30;100027.82;;;26.32;36.71
63916;BME280;50094;51.356;-0.196;2022-10-22T06:02:58;100033.58;;;26.34;36.66
63916;BME280;50094;51.356;-0.196;2022-10-22T06:05:25;100039.24;;;26.39;36.59
63916;BME280;50094;51.356;-0.196;2022-10-22T06:07:53;100041.28;;;26.33;36.62
63916;BME280;50094;51.356;-0.196;2022-10-22T06:10:22;100044.07;;;26.50;36.65
63916;BME280;50094;51.356;-0.196;2022-10-22T06:12:49;100049.38;;;26.24;36.76
63916;BME280;50094;51.356;-0.196;2022-10-22T06:15:18;100056.26;;;26.24;36.67
63916;BME280;50094;51.356;-0.196;2022-10-22T06:17:46;100052.66;;;26.21;36.73
63916;BME280;50094;51.356;-0.196;2022-10-22T06:20:14;100053.94;;;26.18;36.72
63916;BME280;50094;51.356;-0.196;2022-10-22T06:22:41;100053.76;;;26.21;36.68
63916;BME280;50094;51.356;-0.196;2022-10-22T06:25:08;100060.73;;;26.08;36.57
63916;BME280;50094;51.356;-0.196;2022-10-22T06:27:35;100062.54;;;26.19;36.73
63916;BME280;50094;51.356;-0.196;2022-10-22T06:30:03;100067.68;;;25.93;36.69
63916;BME280;50094;51.356;-0.196;2022-10-22T06:32:30;100073.02;;;26.20;36.61
63916;BME280;50094;51.356;-0.196;2022-10-22T06:34:58;100077.95;;;26.19;36.55
63916;BME280;50094;51.356;-0.196;2022-10-22T06:37:26;100083.70;;;26.12;36.60
63916;BME280;50094;51.356;-0.196;2022-10-22T06:39:53;100087.77;;;26.13;36.56
63916;BME280;50094;51.356;-0.196;2022-10-22T06:42:21;100090.76;;;26.13;36.56
63916;BME280;50094;51.356;-0.196;2022-10-22T06:44:49;100092.84;;;26.06;36.60
63916;BME280;50094;51.356;-0.196;2022-10-22T06:47:16;100098.83;;;26.05;36.59
63916;BME280;50094;51.356;-0.196;2022-10-22T06:49:44;100100.16;;;26.08;36.56
63916;BME280;50094;51.356;-0.196;2022-10-22T06:52:12;100105.46;;;26.07;36.58
63916;BME280;50094;51.356;-0.196;2022-10-22T06:54:39;100113.28;;;26.07;36.59
63916;BME280;50094;51.356;-0.196;2022-10-22T06:57:07;100119.99;;;25.94;36.49
63916;BME280;50094;51.356;-0.196;2022-10-22T06:59:35;100130.11;;;26.10;36.54
63916;BME280;50094;51.356;-0.196;2022-10-22T07:02:02;100129.67;;;25.90;36.52
63916;BME280;50094;51.356;-0.196;2022-10-22T07:04:30;100131.91;;;26.10;36.57
63916;BME280;50094;51.356;-0.196;2022-10-22T07:06:57;100136.61;;;26.06;36.59
63916;BME280;50094;51.356;-0.196;2022-10-22T07:09:25;100142.64;;;26.10;36.52
63916;BME280;50094;51.356;-0.196;2022-10-22T07:11:53;100145.70;;;26.06;36.57
63916;BME280;50094;51.356;-0.196;2022-10-22T07:14:21;100150.06;;;26.02;36.61
63916;BME280;50094;51.356;-0.196;2022-10-22T07:16:48;100154.30;;;26.10;36.55
63916;BME280;50094;51.356;-0.196;2022-10-22T07:19:16;100158.03;;;26.04;36.56
63916;BME280;50094;51.356;-0.196;2022-10-22T07:21:44;100160.30;;;26.30;36.50
63916;BME280;50094;51.356;-0.196;2022-10-22T07:24:11;100166.13;;;26.10;36.45
63916;BME280;50094;51.356;-0.196;2022-10-22T07:26:39;100169.57;;;26.02;36.57
63916;BME280;50094;51.356;-0.196;2022-10-22T07:29:07;100172.14;;;26.10;36.44
63916;BME280;50094;51.356;-0.196;2022-10-22T07:31:34;100173.07;;;25.85;36.50
63916;BME280;50094;51.356;-0.196;2022-10-22T07:34:02;100182.09;;;26.11;36.42
63916;BME280;50094;51.356;-0.196;2022-10-22T07:36:30;100183.78;;;26.13;36.43
63916;BME280;50094;51.356;-0.196;2022-10-22T07:38:58;100193.58;;;26.21;36.32
63916;BME280;50094;51.356;-0.196;2022-10-22T07:41:27;100195.38;;;26.07;36.24
63916;BME280;50094;51.356;-0.196;2022-10-22T07:43:55;100197.53;;;26.10;36.14
63916;BME280;50094;51.356;-0.196;2022-10-22T07:46:23;100205.04;;;26.34;36.13
63916;BME280;50094;51.356;-0.196;2022-10-22T07:48:50;100208.94;;;26.35;36.11
63916;BME280;50094;51.356;-0.196;2022-10-22T07:51:17;100211.61;;;26.36;36.13
63916;BME280;50094;51.356;-0.196;2022-10-22T07:53:45;100211.85;;;26.41;36.00
63916;BME280;50094;51.356;-0.196;2022-10-22T07:56:13;100218.15;;;26.15;35.99
63916;BME280;50094;51.356;-0.196;2022-10-22T07:58:39;100220.06;;;26.27;36.09
63916;BME280;50094;51.356;-0.196;2022-10-22T08:01:07;100221.21;;;26.21;36.19
63916;BME280;50094;51.356;-0.196;2022-10-22T08:03:35;100222.59;;;25.96;36.17
63916;BME280;50094;51.356;-0.196;2022-10-22T08:06:03;100227.72;;;25.97;36.17
63916;BME280;50094;51.356;-0.196;2022-10-22T08:08:30;100237.89;;;26.05;36.40
63916;BME280;50094;51.356;-0.196;2022-10-22T08:10:59;100236.42;;;26.16;36.30
63916;BME280;50094;51.356;-0.196;2022-10-22T08:13:27;100236.10;;;26.11;36.33
63916;BME280;50094;51.356;-0.196;2022-10-22T08:15:54;100240.54;;;25.89;36.32
63916;BME280;50094;51.356;-0.196;2022-10-22T08:18:22;100241.87;;;25.92;36.29
63916;BME280;50094;51.356;-0.196;2022-10-22T08:20:49;100240.40;;;26.20;36.26
63916;BME280;50094;51.356;-0.196;2022-10-22T08:23:16;100245.07;;;26.16;36.34
63916;BME280;50094;51.356;-0.196;2022-10-22T08:25:44;100244.60;;;26.23;36.22
63916;BME280;50094;51.356;-0.196;2022-10-22T08:28:12;100249.10;;;25.98;36.21
63916;BME280;50094;51.356;-0.196;2022-10-22T08:30:39;100250.47;;;26.16;36.30
63916;BME280;50094;51.356;-0.196;2022-10-22T08:33:07;100254.26;;;26.11;36.31
63916;BME280;50094;51.356;-0.196;2022-10-22T08:35:35;100259.27;;;26.07;36.39
63916;BME280;50094;51.356;-0.196;2022-10-22T08:38:02;100264.16;;;25.61;36.39
63916;BME280;50094;51.356;-0.196;2022-10-22T08:40:32;100264.59;;;26.10;36.40
63916;BME280;50094;51.356;-0.196;2022-10-22T08:43:12;100264.98;;;26.14;36.32
63916;BME280;50094;51.356;-0.196;2022-10-22T08:45:51;100269.52;;;26.12;36.40
63916;BME280;50094;51.356;-0.196;2022-10-22T08:48:35;100274.58;;;25.94;36.32
63916;BME280;50094;51.356;-0.196;2022-10-22T08:51:11;100275.20;;;26.18;36.30
63916;BME280;50094;51.356;-0.196;2022-10-22T08:53:45;100275.46;;;26.16;36.31
63916;BME280;50094;51.356;-0.196;2022-10-22T08:56:16;100278.75;;;26.18;36.36
63916;BME280;50094;51.356;-0.196;2022-10-22T08:58:48;100279.64;;;26.23;36.35
63916;BME280;50094;51.356;-0.196;2022-10-22T09:01:20;100277.87;;;26.00;36.41
63916;BME280;50094;51.356;-0.196;2022-10-22T09:03:51;100278.73;;;26.27;36.40
63916;BME280;50094;51.356;-0.196;2022-10-22T09:06:23;100279.19;;;26.24;36.46
63916;BME280;50094;51.356;-0.196;2022-10-22T09:08:52;100283.22;;;26.03;36.41
63916;BME280;50094;51.356;-0.196;2022-10-22T09:11:25;100286.79;;;26.28;36.44
63916;BME280;50094;51.356;-0.196;2022-10-22T09:13:54;100291.40;;;26.39;36.34
63916;BME280;50094;51.356;-0.196;2022-10-22T09:16:29;100296.03;;;26.21;36.34
63916;BME280;50094;51.356;-0.196;2022-10-22T09:19:08;100296.05;;;26.42;36.39
63916;BME280;50094;51.356;-0.196;2022-10-22T09:21:46;100298.17;;;26.44;36.36
63916;BME280;50094;51.356;-0.196;2022-10-22T09:24:25;100299.22;;;26.19;36.40
63916;BME280;50094;51.356;-0.196;2022-10-22T09:26:55;100300.59;;;26.42;36.43
63916;BME280;50094;51.356;-0.196;2022-10-22T09:29:34;100300.48;;;26.23;36.47
63916;BME280;50094;51.356;-0.196;2022-10-22T09:32:01;100297.01;;;26.53;36.39
63916;BME280;50094;51.356;-0.196;2022-10-22T09:34:29;100297.26;;;26.74;36.41
63916;BME280;50094;51.356;-0.196;2022-10-22T09:36:58;100301.73;;;26.54;36.38
63916;BME280;50094;51.356;-0.196;2022-10-22T09:39:27;100303.30;;;26.56;36.38
63916;BME280;50094;51.356;-0.196;2022-10-22T09:41:57;100299.73;;;26.65;36.35
63916;BME280;50094;51.356;-0.196;2022-10-22T09:44:25;100303.85;;;26.66;36.33
63916;BME280;50094;51.356;-0.196;2022-10-22T09:46:52;100305.25;;;26.46;36.33
63916;BME280;50094;51.356;-0.196;2022-10-22T09:49:22;100310.09;;;26.19;36.34
63916;BME280;50094;51.356;-0.196;2022-10-22T09:51:53;100313.56;;;26.22;36.31
63916;BME280;50094;51.356;-0.196;2022-10-22T09:54:22;100314.70;;;26.55;36.26
63916;BME280;50094;51.356;-0.196;2022-10-22T09:56:53;100315.14;;;26.79;36.22
63916;BME280;50094;51.356;-0.196;2022-10-22T09:59:27;100318.27;;;26.48;36.31
63916;BME280;50094;51.356;-0.196;2022-10-22T10:01:58;100319.70;;;26.26;36.28
63916;BME280;50094;51.356;-0.196;2022-10-22T10:04:25;100320.67;;;26.73;36.30
63916;BME280;50094;51.356;-0.196;2022-10-22T10:06:54;100317.34;;;26.24;36.30
63916;BME280;50094;51.356;-0.196;2022-10-22T10:09:24;100319.10;;;26.75;36.30
63916;BME280;50094;51.356;-0.196;2022-10-22T10:11:57;100322.62;;;26.31;36.27
63916;BME280;50094;51.356;-0.196;2022-10-22T10:14:36;100321.96;;;26.28;36.27
63916;BME280;50094;51.356;-0.196;2022-10-22T10:17:14;100324.40;;;26.28;36.25
63916;BME280;50094;51.356;-0.196;2022-10-22T10:19:55;100321.60;;;26.51;36.29
63916;BME280;50094;51.356;-0.196;2022-10-22T10:22:39;100329.79;;;26.77;36.26
63916;BME280;50094;51.356;-0.196;2022-10-22T10:25:25;100329.55;;;26.53;36.28
63916;BME280;50094;51.356;-0.196;2022-10-22T10:28:00;100327.49;;;26.75;36.29
63916;BME280;50094;51.356;-0.196;2022-10-22T10:30:31;100332.99;;;26.57;36.27
63916;BME280;50094;51.356;-0.196;2022-10-22T10:33:11;100330.92;;;26.60;36.27
63916;BME280;50094;51.356;-0.196;2022-10-22T10:35:50;100341.34;;;26.55;36.26
63916;BME280;50094;51.356;-0.196;2022-10-22T10:38:32;100337.95;;;26.25;36.29
63916;BME280;50094;51.356;-0.196;2022-10-22T10:41:09;100342.17;;;26.54;36.25
63916;BME280;50094;51.356;-0.196;2022-10-22T10:43:51;100342.53;;;26.45;36.35
63916;BME280;50094;51.356;-0.196;2022-10-22T10:46:27;100351.63;;;26.47;36.38
63916;BME280;50094;51.356;-0.196;2022-10-22T10:49:02;100351.72;;;26.69;36.35
63916;BME280;50094;51.356;-0.196;2022-10-22T10:51:41;100348.76;;;26.69;36.36
63916;BME280;50094;51.356;-0.196;2022-10-22T10:54:19;100348.25;;;26.73;36.32
63916;BME280;50094;51.356;-0.196;2022-10-22T10:56:51;100345.37;;;26.22;36.28
63916;BME280;50094;51.356;-0.196;2022-10-22T10:59:32;100345.62;;;26.51;36.28
63916;BME280;50094;51.356;-0.196;2022-10-22T11:02:20;100343.77;;;26.56;36.23
63916;BME280;50094;51.356;-0.196;2022-10-22T11:05:06;100346.39;;;26.74;36.26
63916;BME280;50094;51.356;-0.196;2022-10-22T11:07:40;100340.14;;;26.51;36.25
63916;BME280;50094;51.356;-0.196;2022-10-22T11:10:20;100342.46;;;26.15;36.31
63916;BME280;50094;51.356;-0.196;2022-10-22T11:12:54;100339.58;;;26.52;36.25
63916;BME280;50094;51.356;-0.196;2022-10-22T11:15:29;100338.43;;;26.51;36.27
63916;BME280;50094;51.356;-0.196;2022-10-22T11:18:03;100340.11;;;26.20;36.28
63916;BME280;50094;51.356;-0.196;2022-10-22T11:20:42;100346.34;;;26.19;36.33
63916;BME280;50094;51.356;-0.196;2022-10-22T11:23:14;100346.85;;;26.43;36.38
63916;BME280;50094;51.356;-0.196;2022-10-22T11:25:44;100346.36;;;26.19;36.33
63916;BME280;50094;51.356;-0.196;2022-10-22T11:28:15;100346.11;;;26.44;36.36
63916;BME280;50094;51.356;-0.196;2022-10-22T11:30:46;100345.64;;;26.71;36.35
63916;BME280;50094;51.356;-0.196;2022-10-22T11:33:20;100346.74;;;26.72;36.40
63916;BME280;50094;51.356;-0.196;2022-10-22T11:35:48;100347.50;;;26.26;36.32
63916;BME280;50094;51.356;-0.196;2022-10-22T11:38:19;100349.26;;;26.54;36.41
63916;BME280;50094;51.356;-0.196;2022-10-22T11:40:56;100347.88;;;26.55;36.42
63916;BME280;50094;51.356;-0.196;2022-10-22T11:43:28;100344.51;;;26.57;36.48
63916;BME280;50094;51.356;-0.196;2022-10-22T11:46:02;100347.39;;;26.38;36.34
63916;BME280;50094;51.356;-0.196;2022-10-22T11:48:36;100348.32;;;26.92;36.34
63916;BME280;50094;51.356;-0.196;2022-10-22T11:51:28;100345.60;;;26.45;36.29
63916;BME280;50094;51.356;-0.196;2022-10-22T11:53:57;100340.96;;;26.78;36.19
63916;BME280;50094;51.356;-0.196;2022-10-22T11:56:35;100336.05;;;26.75;36.29
63916;BME280;50094;51.356;-0.196;2022-10-22T11:59:03;100336.89;;;26.59;36.19
63916;BME280;50094;51.356;-0.196;2022-10-22T12:01:43;100337.80;;;26.87;36.08
63916;BME280;50094;51.356;-0.196;2022-10-22T12:04:17;100332.77;;;26.86;36.06
63916;BME280;50094;51.356;-0.196;2022-10-22T12:06:56;100332.77;;;26.77;36.13
63916;BME280;50094;51.356;-0.196;2022-10-22T12:09:25;100332.28;;;26.71;36.18
63916;BME280;50094;51.356;-0.196;2022-10-22T12:11:52;100334.01;;;26.34;36.29
63916;BME280;50094;51.356;-0.196;2022-10-22T12:14:22;100334.09;;;26.60;36.27
63916;BME280;50094;51.356;-0.196;2022-10-22T12:16:52;100331.19;;;26.59;36.30
63916;BME280;50094;51.356;-0.196;2022-10-22T12:19:26;100333.81;;;26.33;36.34
63916;BME280;50094;51.356;-0.196;2022-10-22T12:21:58;100332.29;;;26.38;36.27
63916;BME280;50094;51.356;-0.196;2022-10-22T12:24:31;100337.33;;;26.45;36.24
63916;BME280;50094;51.356;-0.196;2022-10-22T12:27:01;100333.21;;;26.46;36.23
63916;BME280;50094;51.356;-0.196;2022-10-22T12:29:31;100334.19;;;26.49;36.18
63916;BME280;50094;51.356;-0.196;2022-10-22T12:32:02;100336.02;;;26.56;36.13
63916;BME280;50094;51.356;-0.196;2022-10-22T12:34:30;100336.80;;;26.87;36.05
63916;BME280;50094;51.356;-0.196;2022-10-22T12:36:57;100334.93;;;26.57;36.02
63916;BME280;50094;51.356;-0.196;2022-10-22T12:39:26;100334.67;;;26.56;36.05
63916;BME280;50094;51.356;-0.196;2022-10-22T12:41:54;100328.79;;;26.55;36.01
63916;BME280;50094;51.356;-0.196;2022-10-22T12:44:21;100332.21;;;26.56;35.99
63916;BME280;50094;51.356;-0.196;2022-10-22T12:46:48;100331.21;;;26.54;36.02
63916;BME280;50094;51.356;-0.196;2022-10-22T12:49:19;100333.16;;;26.57;36.03
63916;BME280;50094;51.356;-0.196;2022-10-22T12:51:48;100333.99;;;26.59;35.99
63916;BME280;50094;51.356;-0.196;2022-10-22T12:54:22;100332.79;;;26.81;35.97
63916;BME280;50094;51.356;-0.196;2022-10-22T12:56:53;100337.04;;;26.57;35.97
63916;BME280;50094;51.356;-0.196;2022-10-22T12:59:24;100338.86;;;26.60;35.95
63916;BME280;50094;51.356;-0.196;2022-10-22T13:01:53;100333.84;;;26.57;35.99
63916;BME280;50094;51.356;-0.196;2022-10-22T13:04:31;100336.89;;;26.53;35.94